CheckWX is a tool to help pilots better visualize weather data.  It is not intended as a substitute for an official pre-flight weather briefing.

12:44:14 UTC

KPNE TAF
Northeast Philadelphia Airport
Philadelphia, Pennsylvania, USA
KPNE 271120Z 2712/2812 34004KT P6SM SCT250 FM271700 30006KT P6SM FEW050 FM280100 VRB03KT P6SM SCT050

Jun-27@
12:00 UTC

Jun-27 @ 12:00 UTC

Jun-27@
17:00 UTC

Jun-27 @ 17:00 UTC

KPNE 271120Z 2712/2812 34004KT P6SM SCT250
Wind
  • 340° at 4 KTS
Cloud Levels
  • Scattered at 25,000' AGL

Jun-27@
17:00 UTC

Jun-27 @ 17:00 UTC

Jun-28@
01:00 UTC

Jun-28 @ 01:00 UTC

FM271700 30006KT P6SM FEW050

From

From Standard forecast or significant change

Wind
  • 300° at 6 KTS
Cloud Levels
  • Few at 5,000' AGL

Jun-28@
01:00 UTC

Jun-28 @ 01:00 UTC

Jun-28@
12:00 UTC

Jun-28 @ 12:00 UTC

FM280100 VRB03KT P6SM SCT050

From

From Standard forecast or significant change

Wind
  • Variable at 3 KTS
Cloud Levels
  • Scattered at 5,000' AGL